BGTL

USAF Thule Airport

Airport
ICAO code
BGTL
IATA Code
THU
Summary
ICAO Region
NAT
ICAO Territory
Location

Thule,

Serving
Thule
Elevation
251 ft
Coordinates
76° 31' 52" N , 68° 42' 24" W
KCC
ET
Airport WX
Low Level Turbulence
Metar
Observation
BGTL 151336Z AUTO 13011KT 9999 SCT026 OVC034 08/08 A2980 RMK AO2 SLP074 TSNO $
Station
Thule A. B.
Date/Time
2022-08-15 13:36:00
Wind direction
130°
Wind speed
11 kts
Lowest cloud amount
scattered clouds
Temperature
8°C
Dew point
8°C
Humidity
100%
Weather condition
n/a

Description

Military (USA) and civil airport in northwest Greenland.

Climatology

Tundra climate (Köppen climate classification ET) - warmest month has an average temperature of 0 - 10 degrees C.

Runways

Designator Length Width Surface Rops
8/26 3047 43 ASPH No/No
08T/26T 3047 43 ASP No/No

Airport map

Aerial View

SKYbrary Partners:

Safety knowledge contributed by: